sensor_id;sensor_type;location;lat;lon;timestamp;P1;durP1;ratioP1;P2;durP2;ratioP2
6547;SDS011;3307;52.416;16.862;2022-12-07T00:02:15;22.30;;;11.10;;
6547;SDS011;3307;52.416;16.862;2022-12-07T00:04:40;21.97;;;11.60;;
6547;SDS011;3307;52.416;16.862;2022-12-07T00:07:05;17.60;;;12.63;;
6547;SDS011;3307;52.416;16.862;2022-12-07T00:09:31;23.80;;;14.50;;
6547;SDS011;3307;52.416;16.862;2022-12-07T00:11:56;22.70;;;14.00;;
6547;SDS011;3307;52.416;16.862;2022-12-07T00:14:22;18.00;;;11.40;;
6547;SDS011;3307;52.416;16.862;2022-12-07T00:16:48;20.33;;;13.70;;
6547;SDS011;3307;52.416;16.862;2022-12-07T00:19:15;20.92;;;14.13;;
6547;SDS011;3307;52.416;16.862;2022-12-07T00:21:40;27.63;;;15.93;;
6547;SDS011;3307;52.416;16.862;2022-12-07T00:24:06;21.57;;;11.97;;
6547;SDS011;3307;52.416;16.862;2022-12-07T00:26:35;17.47;;;10.67;;
6547;SDS011;3307;52.416;16.862;2022-12-07T00:29:07;25.80;;;13.90;;
6547;SDS011;3307;52.416;16.862;2022-12-07T00:31:35;21.95;;;14.02;;
6547;SDS011;3307;52.416;16.862;2022-12-07T00:34:04;17.98;;;11.80;;
6547;SDS011;3307;52.416;16.862;2022-12-07T00:36:30;24.58;;;15.88;;
6547;SDS011;3307;52.416;16.862;2022-12-07T00:38:57;22.07;;;12.60;;
6547;SDS011;3307;52.416;16.862;2022-12-07T00:41:23;21.80;;;14.57;;
6547;SDS011;3307;52.416;16.862;2022-12-07T00:43:50;21.92;;;13.50;;
6547;SDS011;3307;52.416;16.862;2022-12-07T00:46:16;21.40;;;14.90;;
6547;SDS011;3307;52.416;16.862;2022-12-07T00:48:42;22.77;;;14.63;;
6547;SDS011;3307;52.416;16.862;2022-12-07T00:51:07;24.53;;;13.17;;
6547;SDS011;3307;52.416;16.862;2022-12-07T00:53:35;22.30;;;12.40;;
6547;SDS011;3307;52.416;16.862;2022-12-07T00:56:07;22.27;;;13.13;;
6547;SDS011;3307;52.416;16.862;2022-12-07T00:58:33;18.98;;;14.45;;
6547;SDS011;3307;52.416;16.862;2022-12-07T01:01:00;21.23;;;14.00;;
6547;SDS011;3307;52.416;16.862;2022-12-07T01:03:26;20.75;;;13.70;;
6547;SDS011;3307;52.416;16.862;2022-12-07T01:05:52;21.57;;;14.03;;
6547;SDS011;3307;52.416;16.862;2022-12-07T01:08:19;20.60;;;11.13;;
6547;SDS011;3307;52.416;16.862;2022-12-07T01:10:45;24.50;;;14.48;;
6547;SDS011;3307;52.416;16.862;2022-12-07T01:13:10;23.60;;;15.43;;
6547;SDS011;3307;52.416;16.862;2022-12-07T01:15:42;17.50;;;11.80;;
6547;SDS011;3307;52.416;16.862;2022-12-07T01:18:08;25.98;;;16.23;;
6547;SDS011;3307;52.416;16.862;2022-12-07T01:20:34;23.53;;;14.10;;
6547;SDS011;3307;52.416;16.862;2022-12-07T01:22:59;21.37;;;12.00;;
6547;SDS011;3307;52.416;16.862;2022-12-07T01:25:25;25.67;;;15.80;;
6547;SDS011;3307;52.416;16.862;2022-12-07T01:27:50;18.70;;;13.70;;
6547;SDS011;3307;52.416;16.862;2022-12-07T01:30:15;20.80;;;11.37;;
6547;SDS011;3307;52.416;16.862;2022-12-07T01:32:41;22.83;;;15.20;;
6547;SDS011;3307;52.416;16.862;2022-12-07T01:35:06;25.60;;;16.13;;
6547;SDS011;3307;52.416;16.862;2022-12-07T01:37:36;20.80;;;13.30;;
6547;SDS011;3307;52.416;16.862;2022-12-07T01:40:03;18.95;;;12.80;;
6547;SDS011;3307;52.416;16.862;2022-12-07T01:42:30;19.80;;;13.80;;
6547;SDS011;3307;52.416;16.862;2022-12-07T01:47:43;23.42;;;15.05;;
6547;SDS011;3307;52.416;16.862;2022-12-07T01:50:11;19.95;;;11.18;;
6547;SDS011;3307;52.416;16.862;2022-12-07T01:52:37;21.10;;;11.47;;
6547;SDS011;3307;52.416;16.862;2022-12-07T01:55:04;21.15;;;12.27;;
6547;SDS011;3307;52.416;16.862;2022-12-07T01:57:33;14.80;;;8.35;;
6547;SDS011;3307;52.416;16.862;2022-12-07T01:59:59;16.13;;;11.38;;
6547;SDS011;3307;52.416;16.862;2022-12-07T02:02:26;20.27;;;13.37;;
6547;SDS011;3307;52.416;16.862;2022-12-07T02:04:53;21.20;;;13.25;;
6547;SDS011;3307;52.416;16.862;2022-12-07T02:07:20;12.13;;;8.00;;
6547;SDS011;3307;52.416;16.862;2022-12-07T02:09:47;18.88;;;12.07;;
6547;SDS011;3307;52.416;16.862;2022-12-07T02:12:13;15.93;;;11.73;;
6547;SDS011;3307;52.416;16.862;2022-12-07T02:14:38;22.07;;;13.27;;
6547;SDS011;3307;52.416;16.862;2022-12-07T02:17:39;17.30;;;12.90;;
6547;SDS011;3307;52.416;16.862;2022-12-07T02:29:08;14.90;;;10.95;;
6547;SDS011;3307;52.416;16.862;2022-12-07T02:31:35;16.73;;;11.07;;
6547;SDS011;3307;52.416;16.862;2022-12-07T02:34:04;15.30;;;11.38;;
6547;SDS011;3307;52.416;16.862;2022-12-07T02:36:34;13.90;;;10.88;;
6547;SDS011;3307;52.416;16.862;2022-12-07T02:39:07;15.20;;;10.35;;
6547;SDS011;3307;52.416;16.862;2022-12-07T02:41:42;15.65;;;11.02;;
6547;SDS011;3307;52.416;16.862;2022-12-07T02:44:16;13.20;;;9.35;;
6547;SDS011;3307;52.416;16.862;2022-12-07T02:46:52;14.60;;;10.73;;
6547;SDS011;3307;52.416;16.862;2022-12-07T02:49:21;11.23;;;6.88;;
6547;SDS011;3307;52.416;16.862;2022-12-07T02:51:47;16.10;;;12.35;;
6547;SDS011;3307;52.416;16.862;2022-12-07T02:54:14;14.13;;;11.20;;
6547;SDS011;3307;52.416;16.862;2022-12-07T03:07:06;18.25;;;12.85;;
6547;SDS011;3307;52.416;16.862;2022-12-07T03:15:06;15.32;;;10.48;;
6547;SDS011;3307;52.416;16.862;2022-12-07T03:17:35;15.52;;;10.63;;
6547;SDS011;3307;52.416;16.862;2022-12-07T03:20:04;12.45;;;8.75;;
6547;SDS011;3307;52.416;16.862;2022-12-07T03:22:32;11.45;;;7.20;;
6547;SDS011;3307;52.416;16.862;2022-12-07T03:25:01;16.55;;;10.63;;
6547;SDS011;3307;52.416;16.862;2022-12-07T03:30:04;12.90;;;8.93;;
6547;SDS011;3307;52.416;16.862;2022-12-07T03:35:15;12.18;;;9.07;;
6547;SDS011;3307;52.416;16.862;2022-12-07T03:37:45;7.00;;;5.32;;
6547;SDS011;3307;52.416;16.862;2022-12-07T03:43:00;12.18;;;9.10;;
6547;SDS011;3307;52.416;16.862;2022-12-07T03:45:30;14.07;;;10.05;;
6547;SDS011;3307;52.416;16.862;2022-12-07T03:48:03;11.98;;;9.23;;
6547;SDS011;3307;52.416;16.862;2022-12-07T03:53:30;11.48;;;9.55;;
6547;SDS011;3307;52.416;16.862;2022-12-07T03:56:04;13.30;;;9.95;;
6547;SDS011;3307;52.416;16.862;2022-12-07T03:58:30;12.60;;;10.10;;
6547;SDS011;3307;52.416;16.862;2022-12-07T04:00:56;15.90;;;11.07;;
6547;SDS011;3307;52.416;16.862;2022-12-07T04:03:22;14.67;;;11.30;;
6547;SDS011;3307;52.416;16.862;2022-12-07T04:05:47;14.77;;;11.40;;
6547;SDS011;3307;52.416;16.862;2022-12-07T04:08:13;13.30;;;10.70;;
6547;SDS011;3307;52.416;16.862;2022-12-07T04:10:38;16.17;;;9.17;;
6547;SDS011;3307;52.416;16.862;2022-12-07T04:13:04;16.40;;;11.80;;
6547;SDS011;3307;52.416;16.862;2022-12-07T04:15:29;14.67;;;11.83;;
6547;SDS011;3307;52.416;16.862;2022-12-07T04:17:54;18.67;;;12.77;;
6547;SDS011;3307;52.416;16.862;2022-12-07T04:20:20;13.73;;;9.13;;
6547;SDS011;3307;52.416;16.862;2022-12-07T04:22:46;18.30;;;12.60;;
6547;SDS011;3307;52.416;16.862;2022-12-07T04:25:11;15.60;;;11.13;;
6547;SDS011;3307;52.416;16.862;2022-12-07T04:27:37;14.97;;;12.33;;
6547;SDS011;3307;52.416;16.862;2022-12-07T04:30:02;19.10;;;13.37;;
6547;SDS011;3307;52.416;16.862;2022-12-07T04:32:28;17.93;;;12.90;;
6547;SDS011;3307;52.416;16.862;2022-12-07T04:34:53;20.80;;;13.47;;
6547;SDS011;3307;52.416;16.862;2022-12-07T04:37:19;15.50;;;12.73;;
6547;SDS011;3307;52.416;16.862;2022-12-07T04:39:44;17.63;;;13.10;;
6547;SDS011;3307;52.416;16.862;2022-12-07T04:42:10;15.43;;;11.60;;
6547;SDS011;3307;52.416;16.862;2022-12-07T04:44:35;19.87;;;12.50;;
6547;SDS011;3307;52.416;16.862;2022-12-07T04:47:01;19.60;;;13.30;;
6547;SDS011;3307;52.416;16.862;2022-12-07T04:49:26;17.37;;;11.60;;
6547;SDS011;3307;52.416;16.862;2022-12-07T04:51:52;11.67;;;8.07;;
6547;SDS011;3307;52.416;16.862;2022-12-07T04:54:18;19.43;;;13.07;;
6547;SDS011;3307;52.416;16.862;2022-12-07T04:56:43;15.27;;;11.00;;
6547;SDS011;3307;52.416;16.862;2022-12-07T04:59:09;16.30;;;11.60;;
6547;SDS011;3307;52.416;16.862;2022-12-07T05:01:36;16.23;;;12.50;;
6547;SDS011;3307;52.416;16.862;2022-12-07T05:04:01;16.93;;;12.90;;
6547;SDS011;3307;52.416;16.862;2022-12-07T05:06:26;15.60;;;12.53;;
6547;SDS011;3307;52.416;16.862;2022-12-07T05:08:52;16.60;;;12.20;;
6547;SDS011;3307;52.416;16.862;2022-12-07T05:11:17;16.17;;;12.20;;
6547;SDS011;3307;52.416;16.862;2022-12-07T05:14:02;19.75;;;14.00;;
6547;SDS011;3307;52.416;16.862;2022-12-07T05:16:28;17.55;;;12.70;;
6547;SDS011;3307;52.416;16.862;2022-12-07T05:18:53;18.93;;;13.00;;
6547;SDS011;3307;52.416;16.862;2022-12-07T05:21:19;18.27;;;13.40;;
6547;SDS011;3307;52.416;16.862;2022-12-07T05:23:44;17.90;;;12.50;;
6547;SDS011;3307;52.416;16.862;2022-12-07T05:26:10;18.17;;;14.30;;
6547;SDS011;3307;52.416;16.862;2022-12-07T05:28:35;21.00;;;14.10;;
6547;SDS011;3307;52.416;16.862;2022-12-07T05:31:01;23.63;;;17.33;;
6547;SDS011;3307;52.416;16.862;2022-12-07T05:33:26;20.77;;;16.53;;
6547;SDS011;3307;52.416;16.862;2022-12-07T05:35:51;24.30;;;16.73;;
6547;SDS011;3307;52.416;16.862;2022-12-07T05:38:17;23.40;;;17.30;;
6547;SDS011;3307;52.416;16.862;2022-12-07T05:40:42;22.17;;;17.00;;
6547;SDS011;3307;52.416;16.862;2022-12-07T05:43:08;22.83;;;15.77;;
6547;SDS011;3307;52.416;16.862;2022-12-07T05:45:33;24.67;;;16.60;;
6547;SDS011;3307;52.416;16.862;2022-12-07T05:47:58;28.37;;;18.07;;
6547;SDS011;3307;52.416;16.862;2022-12-07T05:50:24;19.03;;;13.23;;
6547;SDS011;3307;52.416;16.862;2022-12-07T05:52:49;19.60;;;14.50;;
6547;SDS011;3307;52.416;16.862;2022-12-07T05:55:15;19.60;;;13.63;;
6547;SDS011;3307;52.416;16.862;2022-12-07T05:57:40;19.27;;;13.33;;
6547;SDS011;3307;52.416;16.862;2022-12-07T06:00:26;17.98;;;12.35;;
6547;SDS011;3307;52.416;16.862;2022-12-07T06:02:51;16.57;;;12.60;;
6547;SDS011;3307;52.416;16.862;2022-12-07T06:05:16;12.13;;;8.27;;
6547;SDS011;3307;52.416;16.862;2022-12-07T06:07:42;17.20;;;13.60;;
6547;SDS011;3307;52.416;16.862;2022-12-07T06:10:07;17.73;;;13.40;;
6547;SDS011;3307;52.416;16.862;2022-12-07T06:12:33;15.03;;;11.70;;
6547;SDS011;3307;52.416;16.862;2022-12-07T06:14:58;17.17;;;12.07;;
6547;SDS011;3307;52.416;16.862;2022-12-07T06:17:23;14.60;;;11.80;;
6547;SDS011;3307;52.416;16.862;2022-12-07T06:19:49;14.27;;;10.93;;
6547;SDS011;3307;52.416;16.862;2022-12-07T06:22:14;16.03;;;12.30;;
6547;SDS011;3307;52.416;16.862;2022-12-07T06:24:41;18.77;;;10.30;;
6547;SDS011;3307;52.416;16.862;2022-12-07T06:27:06;12.40;;;10.80;;
6547;SDS011;3307;52.416;16.862;2022-12-07T06:29:32;12.03;;;7.70;;
6547;SDS011;3307;52.416;16.862;2022-12-07T06:31:58;15.50;;;10.77;;
6547;SDS011;3307;52.416;16.862;2022-12-07T06:34:23;17.17;;;12.00;;
6547;SDS011;3307;52.416;16.862;2022-12-07T06:36:50;13.70;;;9.07;;
6547;SDS011;3307;52.416;16.862;2022-12-07T06:39:29;9.30;;;6.88;;
6547;SDS011;3307;52.416;16.862;2022-12-07T06:41:55;15.20;;;10.38;;
6547;SDS011;3307;52.416;16.862;2022-12-07T06:44:21;10.68;;;9.55;;
6547;SDS011;3307;52.416;16.862;2022-12-07T06:46:47;14.20;;;9.50;;
6547;SDS011;3307;52.416;16.862;2022-12-07T06:49:13;10.48;;;7.22;;
6547;SDS011;3307;52.416;16.862;2022-12-07T06:51:39;11.37;;;7.97;;
6547;SDS011;3307;52.416;16.862;2022-12-07T06:54:07;14.02;;;9.73;;
6547;SDS011;3307;52.416;16.862;2022-12-07T06:56:36;16.15;;;10.20;;
6547;SDS011;3307;52.416;16.862;2022-12-07T06:59:02;12.33;;;8.13;;
6547;SDS011;3307;52.416;16.862;2022-12-07T07:01:28;14.15;;;9.85;;
6547;SDS011;3307;52.416;16.862;2022-12-07T07:03:54;16.37;;;11.50;;
6547;SDS011;3307;52.416;16.862;2022-12-07T07:06:19;10.83;;;8.60;;
6547;SDS011;3307;52.416;16.862;2022-12-07T07:08:45;16.10;;;11.87;;
6547;SDS011;3307;52.416;16.862;2022-12-07T07:11:10;18.70;;;13.23;;
6547;SDS011;3307;52.416;16.862;2022-12-07T07:13:36;17.40;;;12.23;;
6547;SDS011;3307;52.416;16.862;2022-12-07T07:16:01;15.60;;;10.87;;
6547;SDS011;3307;52.416;16.862;2022-12-07T07:18:27;17.27;;;11.90;;
6547;SDS011;3307;52.416;16.862;2022-12-07T07:20:53;9.27;;;7.17;;
6547;SDS011;3307;52.416;16.862;2022-12-07T07:23:18;11.53;;;7.93;;
6547;SDS011;3307;52.416;16.862;2022-12-07T07:25:44;15.87;;;10.77;;
6547;SDS011;3307;52.416;16.862;2022-12-07T07:28:10;13.33;;;9.00;;
6547;SDS011;3307;52.416;16.862;2022-12-07T07:30:36;9.23;;;7.67;;
6547;SDS011;3307;52.416;16.862;2022-12-07T07:33:02;10.87;;;7.73;;
6547;SDS011;3307;52.416;16.862;2022-12-07T07:35:29;12.45;;;7.93;;
6547;SDS011;3307;52.416;16.862;2022-12-07T07:37:55;11.82;;;9.70;;
6547;SDS011;3307;52.416;16.862;2022-12-07T07:40:21;9.83;;;8.20;;
6547;SDS011;3307;52.416;16.862;2022-12-07T07:42:50;12.00;;;8.73;;
6547;SDS011;3307;52.416;16.862;2022-12-07T07:45:16;12.07;;;8.70;;
6547;SDS011;3307;52.416;16.862;2022-12-07T07:47:42;12.77;;;9.70;;
6547;SDS011;3307;52.416;16.862;2022-12-07T07:50:07;11.33;;;9.07;;
6547;SDS011;3307;52.416;16.862;2022-12-07T07:52:34;13.05;;;8.00;;
6547;SDS011;3307;52.416;16.862;2022-12-07T07:54:59;10.07;;;7.93;;
6547;SDS011;3307;52.416;16.862;2022-12-07T07:57:25;10.30;;;7.80;;
6547;SDS011;3307;52.416;16.862;2022-12-07T07:59:50;10.50;;;7.50;;
6547;SDS011;3307;52.416;16.862;2022-12-07T08:02:16;13.50;;;8.47;;
6547;SDS011;3307;52.416;16.862;2022-12-07T08:04:43;12.90;;;9.45;;
6547;SDS011;3307;52.416;16.862;2022-12-07T08:07:09;14.63;;;10.50;;
6547;SDS011;3307;52.416;16.862;2022-12-07T08:09:34;14.67;;;9.60;;
6547;SDS011;3307;52.416;16.862;2022-12-07T08:12:00;12.70;;;10.90;;
6547;SDS011;3307;52.416;16.862;2022-12-07T08:14:25;18.10;;;11.07;;
6547;SDS011;3307;52.416;16.862;2022-12-07T08:16:52;15.88;;;12.40;;
6547;SDS011;3307;52.416;16.862;2022-12-07T08:19:17;18.60;;;13.73;;
6547;SDS011;3307;52.416;16.862;2022-12-07T08:21:43;15.20;;;11.97;;
6547;SDS011;3307;52.416;16.862;2022-12-07T08:24:08;15.03;;;11.50;;
6547;SDS011;3307;52.416;16.862;2022-12-07T08:26:34;17.83;;;13.10;;
6547;SDS011;3307;52.416;16.862;2022-12-07T08:28:59;16.53;;;13.23;;
6547;SDS011;3307;52.416;16.862;2022-12-07T08:31:24;21.33;;;13.30;;
6547;SDS011;3307;52.416;16.862;2022-12-07T08:33:50;17.83;;;12.90;;
6547;SDS011;3307;52.416;16.862;2022-12-07T08:36:16;15.83;;;11.50;;
6547;SDS011;3307;52.416;16.862;2022-12-07T08:38:42;15.43;;;10.93;;
6547;SDS011;3307;52.416;16.862;2022-12-07T08:41:07;15.00;;;10.97;;
6547;SDS011;3307;52.416;16.862;2022-12-07T08:43:33;14.55;;;10.88;;
6547;SDS011;3307;52.416;16.862;2022-12-07T08:46:07;16.48;;;11.90;;
6547;SDS011;3307;52.416;16.862;2022-12-07T08:48:36;17.95;;;11.85;;
6547;SDS011;3307;52.416;16.862;2022-12-07T08:51:05;15.45;;;11.35;;
6547;SDS011;3307;52.416;16.862;2022-12-07T08:53:30;14.37;;;11.40;;
6547;SDS011;3307;52.416;16.862;2022-12-07T08:55:57;15.43;;;10.98;;
6547;SDS011;3307;52.416;16.862;2022-12-07T08:58:23;17.10;;;11.63;;
6547;SDS011;3307;52.416;16.862;2022-12-07T09:00:49;18.50;;;13.20;;
6547;SDS011;3307;52.416;16.862;2022-12-07T09:03:14;17.63;;;13.03;;
6547;SDS011;3307;52.416;16.862;2022-12-07T09:05:39;16.13;;;13.27;;
6547;SDS011;3307;52.416;16.862;2022-12-07T09:08:05;21.13;;;14.90;;
6547;SDS011;3307;52.416;16.862;2022-12-07T09:10:31;19.45;;;14.80;;
6547;SDS011;3307;52.416;16.862;2022-12-07T09:12:57;22.00;;;15.50;;
6547;SDS011;3307;52.416;16.862;2022-12-07T09:15:26;18.00;;;14.63;;
6547;SDS011;3307;52.416;16.862;2022-12-07T09:17:54;24.00;;;16.42;;
6547;SDS011;3307;52.416;16.862;2022-12-07T09:20:20;22.07;;;16.80;;
6547;SDS011;3307;52.416;16.862;2022-12-07T09:22:45;25.90;;;16.53;;
6547;SDS011;3307;52.416;16.862;2022-12-07T09:25:11;24.90;;;17.40;;
6547;SDS011;3307;52.416;16.862;2022-12-07T09:27:36;21.27;;;15.60;;
6547;SDS011;3307;52.416;16.862;2022-12-07T09:30:02;27.93;;;17.77;;
6547;SDS011;3307;52.416;16.862;2022-12-07T09:32:29;24.67;;;18.88;;
6547;SDS011;3307;52.416;16.862;2022-12-07T09:34:54;24.70;;;17.50;;
6547;SDS011;3307;52.416;16.862;2022-12-07T09:37:20;24.60;;;18.57;;
6547;SDS011;3307;52.416;16.862;2022-12-07T09:39:45;32.33;;;20.70;;
6547;SDS011;3307;52.416;16.862;2022-12-07T09:42:11;31.30;;;21.37;;
6547;SDS011;3307;52.416;16.862;2022-12-07T09:44:49;25.42;;;20.00;;
6547;SDS011;3307;52.416;16.862;2022-12-07T09:47:15;26.97;;;19.40;;
6547;SDS011;3307;52.416;16.862;2022-12-07T09:49:40;21.50;;;16.60;;
6547;SDS011;3307;52.416;16.862;2022-12-07T09:54:35;25.05;;;17.35;;
6547;SDS011;3307;52.416;16.862;2022-12-07T09:57:02;25.27;;;16.73;;
6547;SDS011;3307;52.416;16.862;2022-12-07T09:59:27;25.60;;;18.10;;
6547;SDS011;3307;52.416;16.862;2022-12-07T10:01:53;21.87;;;16.60;;
6547;SDS011;3307;52.416;16.862;2022-12-07T10:04:23;20.52;;;14.60;;
6547;SDS011;3307;52.416;16.862;2022-12-07T10:06:50;26.38;;;18.35;;
6547;SDS011;3307;52.416;16.862;2022-12-07T10:09:17;24.45;;;18.50;;
6547;SDS011;3307;52.416;16.862;2022-12-07T10:12:05;25.10;;;18.40;;
6547;SDS011;3307;52.416;16.862;2022-12-07T10:14:35;25.17;;;19.25;;
6547;SDS011;3307;52.416;16.862;2022-12-07T10:17:26;26.05;;;17.52;;
6547;SDS011;3307;52.416;16.862;2022-12-07T10:20:08;25.88;;;18.42;;
6547;SDS011;3307;52.416;16.862;2022-12-07T10:22:39;26.10;;;16.25;;
6547;SDS011;3307;52.416;16.862;2022-12-07T10:25:19;26.05;;;18.77;;
6547;SDS011;3307;52.416;16.862;2022-12-07T10:27:56;27.25;;;19.55;;
6547;SDS011;3307;52.416;16.862;2022-12-07T10:30:26;25.25;;;19.77;;
6547;SDS011;3307;52.416;16.862;2022-12-07T10:32:51;25.63;;;17.13;;
6547;SDS011;3307;52.416;16.862;2022-12-07T10:35:18;29.13;;;20.90;;
6547;SDS011;3307;52.416;16.862;2022-12-07T10:37:46;30.95;;;22.65;;
6547;SDS011;3307;52.416;16.862;2022-12-07T10:40:29;30.38;;;21.42;;
6547;SDS011;3307;52.416;16.862;2022-12-07T10:45:44;29.73;;;20.60;;
6547;SDS011;3307;52.416;16.862;2022-12-07T10:48:22;26.50;;;18.90;;
6547;SDS011;3307;52.416;16.862;2022-12-07T11:04:03;29.67;;;22.50;;
6547;SDS011;3307;52.416;16.862;2022-12-07T11:15:00;28.47;;;20.33;;
6547;SDS011;3307;52.416;16.862;2022-12-07T11:23:21;26.45;;;19.30;;
6547;SDS011;3307;52.416;16.862;2022-12-07T11:37:37;29.90;;;21.48;;
6547;SDS011;3307;52.416;16.862;2022-12-07T11:40:03;31.20;;;22.38;;
6547;SDS011;3307;52.416;16.862;2022-12-07T11:42:33;28.23;;;22.85;;
6547;SDS011;3307;52.416;16.862;2022-12-07T11:47:36;29.40;;;21.63;;
6547;SDS011;3307;52.416;16.862;2022-12-07T11:53:10;29.27;;;20.08;;
6547;SDS011;3307;52.416;16.862;2022-12-07T11:58:42;20.50;;;13.85;;
6547;SDS011;3307;52.416;16.862;2022-12-07T12:01:11;23.35;;;17.58;;
6547;SDS011;3307;52.416;16.862;2022-12-07T12:03:40;24.05;;;15.98;;
6547;SDS011;3307;52.416;16.862;2022-12-07T12:06:07;26.13;;;19.40;;
6547;SDS011;3307;52.416;16.862;2022-12-07T12:08:35;23.80;;;15.93;;
6547;SDS011;3307;52.416;16.862;2022-12-07T12:13:56;21.90;;;15.63;;
6547;SDS011;3307;52.416;16.862;2022-12-07T12:16:45;24.77;;;17.23;;
6547;SDS011;3307;52.416;16.862;2022-12-07T12:21:44;22.07;;;16.20;;
6547;SDS011;3307;52.416;16.862;2022-12-07T12:24:13;18.92;;;15.30;;
6547;SDS011;3307;52.416;16.862;2022-12-07T12:26:48;21.10;;;16.70;;
6547;SDS011;3307;52.416;16.862;2022-12-07T12:29:21;24.58;;;17.05;;
6547;SDS011;3307;52.416;16.862;2022-12-07T12:32:04;22.23;;;16.88;;
6547;SDS011;3307;52.416;16.862;2022-12-07T12:42:49;19.83;;;15.80;;
6547;SDS011;3307;52.416;16.862;2022-12-07T12:45:26;16.88;;;13.55;;
6547;SDS011;3307;52.416;16.862;2022-12-07T12:50:50;19.52;;;14.63;;
6547;SDS011;3307;52.416;16.862;2022-12-07T12:53:58;10.80;;;9.27;;
6547;SDS011;3307;52.416;16.862;2022-12-07T12:56:43;17.88;;;12.30;;
6547;SDS011;3307;52.416;16.862;2022-12-07T13:01:46;14.77;;;11.05;;
6547;SDS011;3307;52.416;16.862;2022-12-07T13:04:21;12.80;;;8.88;;
6547;SDS011;3307;52.416;16.862;2022-12-07T13:07:01;17.08;;;13.43;;
6547;SDS011;3307;52.416;16.862;2022-12-07T13:09:28;15.93;;;12.30;;
6547;SDS011;3307;52.416;16.862;2022-12-07T13:11:58;14.70;;;11.95;;
6547;SDS011;3307;52.416;16.862;2022-12-07T13:17:10;16.25;;;11.90;;
6547;SDS011;3307;52.416;16.862;2022-12-07T13:24:55;11.32;;;10.10;;
6547;SDS011;3307;52.416;16.862;2022-12-07T13:27:41;13.32;;;10.48;;
6547;SDS011;3307;52.416;16.862;2022-12-07T13:30:17;14.35;;;10.43;;
6547;SDS011;3307;52.416;16.862;2022-12-07T13:32:51;15.88;;;10.95;;
6547;SDS011;3307;52.416;16.862;2022-12-07T13:35:27;12.52;;;8.80;;
6547;SDS011;3307;52.416;16.862;2022-12-07T13:37:54;14.93;;;11.65;;
6547;SDS011;3307;52.416;16.862;2022-12-07T13:40:20;14.53;;;9.70;;
6547;SDS011;3307;52.416;16.862;2022-12-07T13:42:46;13.27;;;8.30;;
6547;SDS011;3307;52.416;16.862;2022-12-07T13:48:09;16.33;;;12.20;;
6547;SDS011;3307;52.416;16.862;2022-12-07T13:50:54;16.52;;;11.57;;
6547;SDS011;3307;52.416;16.862;2022-12-07T13:53:20;9.13;;;7.55;;
6547;SDS011;3307;52.416;16.862;2022-12-07T13:55:45;10.37;;;8.10;;
6547;SDS011;3307;52.416;16.862;2022-12-07T13:58:11;7.75;;;5.97;;
6547;SDS011;3307;52.416;16.862;2022-12-07T14:00:37;8.50;;;5.73;;
6547;SDS011;3307;52.416;16.862;2022-12-07T14:05:37;11.88;;;9.50;;
6547;SDS011;3307;52.416;16.862;2022-12-07T14:08:25;24.15;;;10.55;;
6547;SDS011;3307;52.416;16.862;2022-12-07T14:13:28;96.00;;;21.93;;
6547;SDS011;3307;52.416;16.862;2022-12-07T14:15:55;8.60;;;6.43;;
6547;SDS011;3307;52.416;16.862;2022-12-07T14:18:25;7.07;;;4.40;;
6547;SDS011;3307;52.416;16.862;2022-12-07T14:20:52;5.13;;;3.45;;
6547;SDS011;3307;52.416;16.862;2022-12-07T14:23:28;7.70;;;5.07;;
6547;SDS011;3307;52.416;16.862;2022-12-07T14:26:03;26.03;;;10.13;;
6547;SDS011;3307;52.416;16.862;2022-12-07T14:28:31;48.28;;;14.77;;
6547;SDS011;3307;52.416;16.862;2022-12-07T14:30:58;11.35;;;6.97;;
6547;SDS011;3307;52.416;16.862;2022-12-07T14:33:24;7.38;;;5.40;;
6547;SDS011;3307;52.416;16.862;2022-12-07T14:35:50;20.17;;;8.50;;
6547;SDS011;3307;52.416;16.862;2022-12-07T14:38:20;6.88;;;5.18;;
6547;SDS011;3307;52.416;16.862;2022-12-07T14:40:45;11.20;;;7.17;;
6547;SDS011;3307;52.416;16.862;2022-12-07T14:43:11;12.23;;;8.43;;
6547;SDS011;3307;52.416;16.862;2022-12-07T14:45:37;11.93;;;7.13;;
6547;SDS011;3307;52.416;16.862;2022-12-07T14:48:04;8.48;;;6.22;;
6547;SDS011;3307;52.416;16.862;2022-12-07T14:50:30;10.83;;;9.10;;
6547;SDS011;3307;52.416;16.862;2022-12-07T14:53:02;9.30;;;5.53;;
6547;SDS011;3307;52.416;16.862;2022-12-07T14:55:32;10.63;;;7.10;;
6547;SDS011;3307;52.416;16.862;2022-12-07T14:57:58;6.70;;;5.63;;
6547;SDS011;3307;52.416;16.862;2022-12-07T15:00:24;5.03;;;4.53;;
6547;SDS011;3307;52.416;16.862;2022-12-07T15:02:51;13.00;;;8.68;;
6547;SDS011;3307;52.416;16.862;2022-12-07T15:05:17;18.37;;;9.07;;
6547;SDS011;3307;52.416;16.862;2022-12-07T15:07:42;23.87;;;14.10;;
6547;SDS011;3307;52.416;16.862;2022-12-07T15:13:05;21.15;;;12.90;;
6547;SDS011;3307;52.416;16.862;2022-12-07T15:15:50;14.63;;;10.60;;
6547;SDS011;3307;52.416;16.862;2022-12-07T15:18:17;10.75;;;6.25;;
6547;SDS011;3307;52.416;16.862;2022-12-07T15:20:42;9.15;;;6.55;;
6547;SDS011;3307;52.416;16.862;2022-12-07T15:23:08;15.13;;;9.10;;
6547;SDS011;3307;52.416;16.862;2022-12-07T15:25:35;24.52;;;16.15;;
6547;SDS011;3307;52.416;16.862;2022-12-07T15:28:00;13.20;;;10.00;;
6547;SDS011;3307;52.416;16.862;2022-12-07T15:30:25;26.77;;;14.53;;
6547;SDS011;3307;52.416;16.862;2022-12-07T15:32:51;8.73;;;5.93;;
6547;SDS011;3307;52.416;16.862;2022-12-07T15:35:17;13.50;;;10.63;;
6547;SDS011;3307;52.416;16.862;2022-12-07T15:37:43;20.53;;;13.50;;
6547;SDS011;3307;52.416;16.862;2022-12-07T15:40:09;13.43;;;8.27;;
6547;SDS011;3307;52.416;16.862;2022-12-07T15:42:35;11.60;;;8.90;;
6547;SDS011;3307;52.416;16.862;2022-12-07T15:45:01;13.77;;;11.55;;
6547;SDS011;3307;52.416;16.862;2022-12-07T15:47:30;9.57;;;7.45;;
6547;SDS011;3307;52.416;16.862;2022-12-07T15:49:56;20.30;;;13.18;;
6547;SDS011;3307;52.416;16.862;2022-12-07T15:52:21;14.20;;;11.33;;
6547;SDS011;3307;52.416;16.862;2022-12-07T15:54:47;14.70;;;10.47;;
6547;SDS011;3307;52.416;16.862;2022-12-07T15:57:12;14.37;;;10.57;;
6547;SDS011;3307;52.416;16.862;2022-12-07T15:59:38;11.38;;;8.68;;
6547;SDS011;3307;52.416;16.862;2022-12-07T16:02:04;17.77;;;12.30;;
6547;SDS011;3307;52.416;16.862;2022-12-07T16:04:29;14.80;;;11.57;;
6547;SDS011;3307;52.416;16.862;2022-12-07T16:06:54;16.43;;;11.43;;
6547;SDS011;3307;52.416;16.862;2022-12-07T16:09:20;30.73;;;23.63;;
6547;SDS011;3307;52.416;16.862;2022-12-07T16:11:46;11.43;;;9.10;;
6547;SDS011;3307;52.416;16.862;2022-12-07T16:14:11;9.00;;;8.10;;
6547;SDS011;3307;52.416;16.862;2022-12-07T16:16:37;13.60;;;9.70;;
6547;SDS011;3307;52.416;16.862;2022-12-07T16:19:02;14.50;;;10.37;;
6547;SDS011;3307;52.416;16.862;2022-12-07T16:21:27;11.67;;;9.83;;
6547;SDS011;3307;52.416;16.862;2022-12-07T16:23:53;13.23;;;10.13;;
6547;SDS011;3307;52.416;16.862;2022-12-07T16:26:19;11.23;;;10.10;;
6547;SDS011;3307;52.416;16.862;2022-12-07T16:28:48;11.13;;;9.95;;
6547;SDS011;3307;52.416;16.862;2022-12-07T16:31:15;15.13;;;11.35;;
6547;SDS011;3307;52.416;16.862;2022-12-07T16:33:43;14.70;;;12.05;;
6547;SDS011;3307;52.416;16.862;2022-12-07T16:36:09;17.80;;;14.23;;
6547;SDS011;3307;52.416;16.862;2022-12-07T16:38:36;15.40;;;12.27;;
6547;SDS011;3307;52.416;16.862;2022-12-07T16:41:03;20.08;;;14.05;;
6547;SDS011;3307;52.416;16.862;2022-12-07T16:43:29;14.27;;;11.73;;
6547;SDS011;3307;52.416;16.862;2022-12-07T16:45:54;15.17;;;11.10;;
6547;SDS011;3307;52.416;16.862;2022-12-07T16:48:20;11.70;;;9.20;;
6547;SDS011;3307;52.416;16.862;2022-12-07T16:50:45;17.77;;;11.77;;
6547;SDS011;3307;52.416;16.862;2022-12-07T16:53:12;13.55;;;10.35;;